Weather at Booneville Municipal Airport

Public forecast

Using degrees Fahrenheit for public forecast. Weather courtesy of forecast.io.

Closest aviation weather report (METAR) to Booneville Municipal Airport

Closest report is Fort Smith Regional Airport, 27.1 nm (50.3 km) WNW. Retrieved 2022/05/17 22:53 UTC (33 minutes ago):

KFSM 172253Z 14008KT 10SM CLR 27/19 A2990 RMK AO2 SLP119 T02720189

Closest aviation forecast (TAF) to Booneville Municipal Airport

Forecast is more than 6 hours old.

Closest forecast is Fort Smith Regional Airport, 27.1 nm (50.3 km) WNW. Retrieved 2022/05/17 12:24 UTC (11 hours ago):

TAF KFSM 171121Z 1712/1812 08006KT P6SM OVC200 FM171500 09010KT P6SM SCT050 OVC250 FM171800 13010KT P6SM BKN050 FM180300 08004KT P6SM SCT250 WS020/20040KT